Time;durP1;ratioP1;P1;durP2;ratioP2;P2;SDS_P1;SDS_P2;PMS_P1;PMS_P2;Temp;Humidity;BMP_temperature;BMP_pressure;BME280_temperature;BME280_humidity;BME280_pressure;Samples;Min_cycle;Max_cycle;Signal;HPM_P1;HPM_P2
2023/12/28 00:02:16;;;;;;;10.43;7.32;;;1.60;99.90;;;;;;6259812;22;20201;-80
2023/12/28 00:04:42;;;;;;;6.38;6.00;;;1.60;99.90;;;;;;6286072;22;20179;-80
2023/12/28 00:07:10;;;;;;;3.83;3.55;;;1.70;99.90;;;;;;6285819;22;20171;-83
2023/12/28 00:09:37;;;;;;;9.13;5.20;;;1.70;99.90;;;;;;6261578;22;20167;-80
2023/12/28 00:12:05;;;;;;;11.32;4.10;;;1.70;99.90;;;;;;6286071;22;20170;-79
2023/12/28 00:14:32;;;;;;;4.07;3.80;;;1.60;99.90;;;;;;6286927;22;20201;-81
2023/12/28 00:16:59;;;;;;;4.78;3.67;;;1.50;99.90;;;;;;6298088;22;20167;-81
2023/12/28 00:19:26;;;;;;;8.65;4.80;;;1.50;99.90;;;;;;6303065;22;20179;-81
2023/12/28 00:21:53;;;;;;;13.32;6.85;;;1.50;99.90;;;;;;6303777;22;20254;-80
2023/12/28 00:24:21;;;;;;;3.45;3.22;;;1.50;99.90;;;;;;6296951;22;20413;-80
2023/12/28 00:26:48;;;;;;;5.97;3.58;;;1.60;99.90;;;;;;6286804;22;20175;-80
2023/12/28 00:29:15;;;;;;;6.30;5.65;;;1.50;99.90;;;;;;6260448;22;20178;-81
2023/12/28 00:31:42;;;;;;;10.90;2.55;;;1.60;99.90;;;;;;6259210;22;20189;-80
2023/12/28 00:34:09;;;;;;;13.20;4.78;;;1.70;99.90;;;;;;6286085;22;20234;-81
2023/12/28 00:36:36;;;;;;;14.95;6.30;;;1.60;99.90;;;;;;6287054;22;20476;-80
2023/12/28 00:39:03;;;;;;;4.78;3.00;;;1.70;99.90;;;;;;6285873;22;20183;-80
2023/12/28 00:41:30;;;;;;;4.82;3.60;;;1.90;99.90;;;;;;6285283;22;20552;-79
2023/12/28 00:43:57;;;;;;;6.05;5.55;;;1.90;99.90;;;;;;6285564;22;20363;-79
2023/12/28 00:46:25;;;;;;;1.90;1.75;;;1.80;99.90;;;;;;6285472;22;20178;-81
2023/12/28 00:48:51;;;;;;;4.63;4.22;;;1.70;99.90;;;;;;6285130;22;20472;-81
2023/12/28 00:51:20;;;;;;;4.03;3.63;;;1.80;99.90;;;;;;6285237;22;20182;-82
2023/12/28 00:53:47;;;;;;;2.47;2.38;;;1.80;99.90;;;;;;6285338;22;20503;-80
2023/12/28 00:56:14;;;;;;;3.88;3.38;;;2.10;99.90;;;;;;6285109;22;20216;-82
2023/12/28 00:58:43;;;;;;;2.28;2.08;;;2.00;99.90;;;;;;6284972;22;20199;-80
2023/12/28 01:01:11;;;;;;;2.28;1.75;;;1.90;99.90;;;;;;6284755;22;20201;-80
2023/12/28 01:03:38;;;;;;;6.75;6.03;;;1.80;99.90;;;;;;6285272;22;20178;-82
2023/12/28 01:06:06;;;;;;;4.90;4.60;;;1.70;99.90;;;;;;6285470;22;20506;-81
2023/12/28 01:08:33;;;;;;;1.25;1.25;;;1.60;99.90;;;;;;6284884;22;20230;-81
2023/12/28 01:11:01;;;;;;;10.43;2.38;;;1.70;99.90;;;;;;6285517;22;20171;-81
2023/12/28 01:13:29;;;;;;;2.15;2.05;;;1.70;99.90;;;;;;6285130;22;20171;-80
2023/12/28 01:15:56;;;;;;;4.30;3.95;;;1.70;99.90;;;;;;6258675;22;20171;-80
2023/12/28 01:18:23;;;;;;;3.03;2.83;;;1.70;99.90;;;;;;6285129;22;20226;-81
2023/12/28 01:20:50;;;;;;;6.40;4.10;;;1.70;99.90;;;;;;6285638;22;20228;-82
2023/12/28 01:23:17;;;;;;;2.10;2.00;;;1.70;99.90;;;;;;6285309;22;20195;-80
2023/12/28 01:25:45;;;;;;;4.57;4.15;;;1.70;99.90;;;;;;6284473;22;20494;-80
2023/12/28 01:28:12;;;;;;;3.40;3.17;;;1.70;99.90;;;;;;6284699;22;20179;-81
2023/12/28 01:30:38;;;;;;;14.50;6.25;;;1.60;99.90;;;;;;6285396;22;20170;-82
2023/12/28 01:33:06;;;;;;;10.52;6.55;;;1.60;99.90;;;;;;6285361;22;20221;-80
2023/12/28 01:35:33;;;;;;;1.95;1.85;;;1.60;99.90;;;;;;6285577;22;20238;-80
2023/12/28 01:38:01;;;;;;;3.15;2.95;;;1.70;99.90;;;;;;6285005;22;20206;-81
2023/12/28 01:40:28;;;;;;;3.10;2.90;;;1.70;99.90;;;;;;6258554;22;20313;-82
2023/12/28 01:42:56;;;;;;;2.63;2.35;;;1.60;99.90;;;;;;6285026;22;20194;-81
2023/12/28 01:45:23;;;;;;;2.58;2.47;;;1.60;99.90;;;;;;6257995;22;20172;-81
2023/12/28 01:47:52;;;;;;;3.53;3.22;;;1.50;99.90;;;;;;6284853;22;20389;-83
2023/12/28 01:50:20;;;;;;;1.88;1.77;;;1.60;99.90;;;;;;6285182;22;20170;-81
2023/12/28 01:52:49;;;;;;;3.53;3.33;;;1.70;99.90;;;;;;6284780;22;20367;-81
2023/12/28 01:55:16;;;;;;;5.07;3.25;;;1.80;99.90;;;;;;6284845;22;20183;-81
2023/12/28 01:57:44;;;;;;;5.63;5.22;;;1.70;99.90;;;;;;6285386;22;20363;-80
2023/12/28 02:00:12;;;;;;;4.80;2.60;;;1.70;99.90;;;;;;6284725;22;20205;-81
2023/12/28 02:02:40;;;;;;;2.80;2.58;;;1.70;99.90;;;;;;6284782;22;20198;-81
2023/12/28 02:05:10;;;;;;;7.80;5.80;;;1.70;99.90;;;;;;6287043;22;20394;-80
2023/12/28 02:07:37;;;;;;;2.80;2.67;;;1.70;99.90;;;;;;6287128;22;20171;-79
2023/12/28 02:10:05;;;;;;;3.50;2.95;;;1.70;99.90;;;;;;6287919;22;20234;-81
2023/12/28 02:12:33;;;;;;;1.38;1.38;;;1.60;99.90;;;;;;6287302;22;20209;-83
2023/12/28 02:15:00;;;;;;;3.10;3.00;;;1.60;99.90;;;;;;6286421;22;20622;-81
2023/12/28 02:17:36;;;;;;;4.43;3.90;;;1.70;99.90;;;;;;6259558;22;20175;-81
2023/12/28 02:20:06;;;;;;;4.00;3.67;;;1.60;99.90;;;;;;6286405;22;20185;-81
2023/12/28 02:22:34;;;;;;;8.13;2.63;;;1.50;99.90;;;;;;6259769;22;20513;-81
2023/12/28 02:25:08;;;;;;;2.78;2.63;;;1.50;99.90;;;;;;6287130;22;20171;-80
2023/12/28 02:27:43;;;;;;;2.20;2.10;;;1.70;99.90;;;;;;6286560;22;20171;-80
2023/12/28 02:30:11;;;;;;;1.60;1.60;;;1.50;99.90;;;;;;6286603;22;20170;-80
2023/12/28 02:32:53;;;;;;;2.83;2.72;;;1.50;99.90;;;;;;6286478;22;20182;-78
2023/12/28 02:35:31;;;;;;;6.45;5.82;;;1.50;99.90;;;;;;6287028;22;20400;-81
2023/12/28 02:38:04;;;;;;;3.35;3.15;;;1.60;99.90;;;;;;6286913;22;20182;-80
2023/12/28 02:40:38;;;;;;;1.45;1.35;;;1.60;99.90;;;;;;6286552;22;20163;-81
2023/12/28 02:43:08;;;;;;;2.90;2.70;;;1.50;99.90;;;;;;6286793;22;20183;-81
2023/12/28 02:45:36;;;;;;;9.52;4.63;;;1.80;99.90;;;;;;6286558;22;20226;-81
2023/12/28 02:48:05;;;;;;;1.60;1.45;;;1.80;99.90;;;;;;6286517;22;20171;-80
2023/12/28 02:50:33;;;;;;;1.05;1.05;;;1.70;99.90;;;;;;6286502;22;20210;-81
2023/12/28 02:53:00;;;;;;;1.65;1.33;;;1.90;99.90;;;;;;6286837;22;20476;-82
2023/12/28 02:55:27;;;;;;;4.32;3.75;;;1.80;99.90;;;;;;6294964;22;20228;-81
2023/12/28 02:57:59;;;;;;;2.53;2.40;;;1.70;99.90;;;;;;6287889;22;20190;-81
2023/12/28 03:00:28;;;;;;;2.03;1.85;;;1.50;99.90;;;;;;6261817;22;20163;-81
2023/12/28 03:02:55;;;;;;;2.00;1.85;;;1.60;99.90;;;;;;6286653;22;20191;-82
2023/12/28 03:05:22;;;;;;;2.30;2.17;;;1.70;99.90;;;;;;6287024;22;20171;-82
2023/12/28 03:07:50;;;;;;;3.78;2.20;;;1.90;99.90;;;;;;6286855;22;20231;-79
2023/12/28 03:10:17;;;;;;;1.40;1.40;;;1.90;99.90;;;;;;6286475;22;20179;-81
2023/12/28 03:12:44;;;;;;;2.25;2.05;;;2.10;99.90;;;;;;6286475;22;20181;-80
2023/12/28 03:15:11;;;;;;;1.23;1.23;;;2.10;99.90;;;;;;6285743;22;20235;-81
2023/12/28 03:17:38;;;;;;;4.38;3.28;;;2.10;99.90;;;;;;6286470;22;20175;-81
2023/12/28 03:20:06;;;;;;;1.50;1.40;;;1.90;99.90;;;;;;6286403;22;20175;-79
2023/12/28 03:22:33;;;;;;;1.52;1.42;;;1.90;99.90;;;;;;6286534;22;20222;-82
2023/12/28 03:25:00;;;;;;;1.48;1.38;;;2.20;99.90;;;;;;6260048;22;20171;-80
2023/12/28 03:27:27;;;;;;;0.95;0.95;;;2.20;99.90;;;;;;6286204;22;20171;-81
2023/12/28 03:29:54;;;;;;;1.08;1.08;;;2.10;99.90;;;;;;6286160;22;20178;-81
2023/12/28 03:32:22;;;;;;;0.90;0.90;;;2.20;99.90;;;;;;6259725;22;20178;-81
2023/12/28 03:34:49;;;;;;;1.38;1.38;;;2.10;99.90;;;;;;6286102;22;20210;-82
2023/12/28 03:37:16;;;;;;;1.27;1.20;;;2.30;99.90;;;;;;6285918;22;20247;-81
2023/12/28 03:39:43;;;;;;;0.60;0.60;;;2.30;99.90;;;;;;6287180;22;20182;-82
2023/12/28 03:42:10;;;;;;;2.00;1.90;;;2.10;99.90;;;;;;6287339;22;20191;-80
2023/12/28 03:44:37;;;;;;;4.68;2.08;;;2.10;99.90;;;;;;6259368;22;20171;-81
2023/12/28 03:47:04;;;;;;;1.00;1.00;;;2.10;99.90;;;;;;6286026;22;20189;-81
2023/12/28 03:49:31;;;;;;;1.52;1.42;;;2.10;99.90;;;;;;6286957;22;20179;-83
2023/12/28 03:51:58;;;;;;;1.02;1.02;;;2.00;99.90;;;;;;6286497;22;20163;-81
2023/12/28 03:54:25;;;;;;;1.77;1.67;;;2.00;99.90;;;;;;6286149;22;20175;-83
2023/12/28 03:56:54;;;;;;;1.92;1.83;;;2.30;99.90;;;;;;6286497;22;20174;-81
2023/12/28 03:59:21;;;;;;;1.95;1.67;;;2.50;99.90;;;;;;6287042;22;20175;-82
2023/12/28 04:01:48;;;;;;;0.60;0.60;;;2.60;99.90;;;;;;6286540;22;20189;-80
2023/12/28 04:04:15;;;;;;;0.60;0.60;;;2.30;99.90;;;;;;6286299;22;20179;-80
2023/12/28 04:06:43;;;;;;;1.45;1.38;;;2.20;99.90;;;;;;6286544;22;20179;-80
2023/12/28 04:09:12;;;;;;;1.75;1.65;;;2.60;99.90;;;;;;6287336;22;20234;-82
2023/12/28 04:11:39;;;;;;;1.20;1.15;;;2.40;99.90;;;;;;6288956;22;20171;-81
2023/12/28 04:14:06;;;;;;;1.08;1.08;;;2.20;99.90;;;;;;6288270;22;20174;-81
2023/12/28 04:16:33;;;;;;;0.80;0.80;;;2.10;99.90;;;;;;6304443;22;20174;-82
2023/12/28 04:19:00;;;;;;;2.35;2.15;;;2.10;99.90;;;;;;6279579;22;20183;-82
2023/12/28 04:21:27;;;;;;;2.60;2.40;;;2.10;99.90;;;;;;6305477;22;20163;-81
2023/12/28 04:23:54;;;;;;;1.40;1.40;;;2.10;99.90;;;;;;6299444;22;20203;-82
2023/12/28 04:26:21;;;;;;;1.42;1.38;;;2.10;99.90;;;;;;6260278;22;20175;-80
2023/12/28 04:28:49;;;;;;;0.40;0.40;;;2.10;99.90;;;;;;6288310;22;20175;-83
2023/12/28 04:31:16;;;;;;;0.65;0.65;;;2.20;99.90;;;;;;6285741;22;20174;-82
2023/12/28 04:33:43;;;;;;;1.52;1.45;;;2.30;99.90;;;;;;6286743;22;20238;-82
2023/12/28 04:36:10;;;;;;;0.60;0.60;;;2.40;99.90;;;;;;6285964;22;20198;-82
2023/12/28 04:38:38;;;;;;;2.47;0.93;;;2.50;99.90;;;;;;6285409;22;20240;-82
2023/12/28 04:41:05;;;;;;;0.90;0.90;;;2.80;99.90;;;;;;6288248;22;20237;-81
2023/12/28 04:43:32;;;;;;;0.40;0.40;;;2.70;99.90;;;;;;6285999;22;20194;-81
2023/12/28 04:46:04;;;;;;;3.08;2.95;;;2.60;99.90;;;;;;6286921;22;20171;-81
2023/12/28 04:48:31;;;;;;;0.45;0.45;;;2.90;99.90;;;;;;6288131;22;20178;-82
2023/12/28 04:51:02;;;;;;;1.38;1.27;;;2.70;99.90;;;;;;6286593;22;20171;-82
2023/12/28 04:53:29;;;;;;;2.38;1.88;;;2.40;99.90;;;;;;6285437;22;20174;-81
2023/12/28 04:55:57;;;;;;;1.70;1.42;;;2.30;99.90;;;;;;6285525;22;20203;-81
2023/12/28 04:58:24;;;;;;;1.95;1.85;;;2.30;99.90;;;;;;6286198;22;20175;-81
2023/12/28 05:00:51;;;;;;;1.63;1.52;;;2.10;99.90;;;;;;6286190;22;20175;-82
2023/12/28 05:03:19;;;;;;;0.95;0.95;;;2.40;99.90;;;;;;6286689;22;20489;-82
2023/12/28 05:05:47;;;;;;;0.80;0.80;;;2.70;99.90;;;;;;6299721;22;20171;-83
2023/12/28 05:08:14;;;;;;;2.28;1.33;;;2.80;99.90;;;;;;6302953;22;20177;-82
2023/12/28 05:10:41;;;;;;;0.60;0.60;;;3.00;99.90;;;;;;6277610;22;20189;-82
2023/12/28 05:13:08;;;;;;;0.40;0.40;;;3.50;99.90;;;;;;6294593;22;20502;-81
2023/12/28 05:15:35;;;;;;;0.50;0.50;;;3.50;99.90;;;;;;6259705;22;20408;-81
2023/12/28 05:18:02;;;;;;;0.50;0.50;;;3.50;99.90;;;;;;6285760;22;20636;-80
2023/12/28 05:20:30;;;;;;;5.50;1.85;;;3.70;99.90;;;;;;6259395;22;20398;-81
2023/12/28 05:22:57;;;;;;;1.85;1.75;;;3.70;99.90;;;;;;6258762;22;20191;-81
2023/12/28 05:25:24;;;;;;;0.93;0.93;;;3.70;99.90;;;;;;6259471;22;20198;-80
2023/12/28 05:27:51;;;;;;;0.50;0.50;;;4.00;99.90;;;;;;6286014;22;20171;-82
2023/12/28 05:30:19;;;;;;;0.50;0.50;;;4.00;99.90;;;;;;6286076;22;20366;-81
2023/12/28 05:32:46;;;;;;;0.73;0.73;;;4.00;99.90;;;;;;6286416;22;20391;-81
2023/12/28 05:35:13;;;;;;;0.80;0.80;;;4.30;99.90;;;;;;6285221;22;20559;-81
2023/12/28 05:37:40;;;;;;;5.88;1.70;;;4.20;99.90;;;;;;6284485;22;20193;-81
2023/12/28 05:40:09;;;;;;;0.52;0.52;;;4.30;99.90;;;;;;6285391;22;20365;-81
2023/12/28 05:42:37;;;;;;;0.50;0.50;;;4.20;99.90;;;;;;6285019;22;20202;-83
2023/12/28 05:45:05;;;;;;;1.05;0.95;;;4.30;99.90;;;;;;6289844;22;20171;-82
2023/12/28 05:47:32;;;;;;;1.30;1.30;;;4.40;99.90;;;;;;6258979;22;20170;-81
2023/12/28 05:50:00;;;;;;;0.40;0.40;;;4.20;99.90;;;;;;6257947;22;20503;-82
2023/12/28 05:52:27;;;;;;;0.63;0.63;;;4.30;99.90;;;;;;6284397;22;20192;-82
2023/12/28 05:54:56;;;;;;;0.85;0.85;;;4.20;99.90;;;;;;6284940;22;20220;-82
2023/12/28 05:57:25;;;;;;;0.60;0.60;;;4.50;99.90;;;;;;6285110;22;20171;-82
2023/12/28 05:59:52;;;;;;;0.50;0.50;;;4.30;99.90;;;;;;6284376;22;20193;-82
2023/12/28 06:02:19;;;;;;;0.50;0.50;;;4.40;99.90;;;;;;6285083;22;20177;-81
2023/12/28 06:04:47;;;;;;;0.90;0.90;;;4.50;99.90;;;;;;6285484;22;20179;-82
2023/12/28 06:07:14;;;;;;;0.40;0.40;;;4.50;99.90;;;;;;6284604;22;20174;-82
2023/12/28 06:09:41;;;;;;;0.40;0.40;;;4.50;99.90;;;;;;6284667;22;20194;-82
2023/12/28 06:12:08;;;;;;;0.40;0.40;;;4.50;99.90;;;;;;6284924;22;20201;-82
2023/12/28 06:14:35;;;;;;;0.50;0.50;;;4.40;99.90;;;;;;6284684;22;20475;-81
2023/12/28 06:17:02;;;;;;;0.40;0.40;;;4.70;99.90;;;;;;6284477;22;20175;-82
2023/12/28 06:19:30;;;;;;;0.50;0.50;;;4.50;99.90;;;;;;6284507;22;20187;-81
2023/12/28 06:21:58;;;;;;;0.70;0.70;;;4.40;99.90;;;;;;6260105;22;20179;-86
2023/12/28 06:24:25;;;;;;;0.80;0.80;;;4.60;99.90;;;;;;6258196;22;20232;-82
2023/12/28 06:26:52;;;;;;;0.60;0.60;;;4.70;99.90;;;;;;6284993;22;20171;-81
2023/12/28 06:29:20;;;;;;;0.50;0.50;;;4.80;99.90;;;;;;6258727;22;20394;-82
2023/12/28 06:31:46;;;;;;;3.90;3.08;;;4.90;99.90;;;;;;6284816;22;20171;-82
2023/12/28 06:34:14;;;;;;;0.60;0.60;;;5.00;99.90;;;;;;6284510;22;20484;-82
2023/12/28 06:36:43;;;;;;;1.35;1.13;;;4.80;99.90;;;;;;6284694;22;20198;-81
2023/12/28 06:39:10;;;;;;;0.40;0.40;;;5.00;99.90;;;;;;6284422;22;20387;-81
2023/12/28 06:41:37;;;;;;;0.40;0.40;;;5.10;99.90;;;;;;6284925;22;20355;-80
2023/12/28 06:44:04;;;;;;;1.67;1.60;;;5.30;99.90;;;;;;6285342;22;20241;-81
2023/12/28 06:46:32;;;;;;;3.88;1.25;;;5.30;99.90;;;;;;6285374;22;20171;-81
2023/12/28 06:48:59;;;;;;;0.50;0.50;;;5.30;99.90;;;;;;6285232;22;20247;-81
2023/12/28 06:51:26;;;;;;;0.77;0.77;;;5.20;99.90;;;;;;6286506;22;20171;-82
2023/12/28 06:53:53;;;;;;;0.70;0.70;;;5.30;99.90;;;;;;6259822;22;20179;-82
2023/12/28 06:56:23;;;;;;;0.75;0.75;;;5.50;99.90;;;;;;6286420;22;20179;-83
2023/12/28 06:58:50;;;;;;;0.47;0.47;;;5.70;99.90;;;;;;6286040;22;20207;-82
2023/12/28 07:01:18;;;;;;;1.60;1.50;;;5.70;99.90;;;;;;6286286;22;20220;-82
2023/12/28 07:03:45;;;;;;;0.40;0.40;;;5.90;99.90;;;;;;6259168;22;20197;-82
2023/12/28 07:06:14;;;;;;;0.50;0.50;;;5.70;99.90;;;;;;6286637;22;20171;-81
2023/12/28 07:08:41;;;;;;;0.40;0.40;;;5.90;99.90;;;;;;6286874;22;20171;-82
2023/12/28 07:11:10;;;;;;;0.47;0.47;;;6.10;99.90;;;;;;6287418;22;20206;-81
2023/12/28 07:13:37;;;;;;;0.50;0.50;;;6.20;99.90;;;;;;6261567;22;20179;-82
2023/12/28 07:16:07;;;;;;;0.47;0.47;;;6.30;99.90;;;;;;6294246;22;20175;-81
2023/12/28 07:18:34;;;;;;;0.50;0.50;;;6.60;99.90;;;;;;6290150;22;20182;-82
2023/12/28 07:21:02;;;;;;;0.50;0.50;;;6.80;99.90;;;;;;6287885;22;20175;-82
2023/12/28 07:23:29;;;;;;;0.40;0.40;;;7.00;99.90;;;;;;6260223;22;20226;-82
2023/12/28 07:25:56;;;;;;;0.50;0.50;;;7.00;99.90;;;;;;6286772;22;20178;-82
2023/12/28 07:28:23;;;;;;;0.45;0.45;;;7.00;99.90;;;;;;6286487;22;20190;-81
2023/12/28 07:30:50;;;;;;;0.50;0.50;;;7.30;99.90;;;;;;6260245;22;20209;-82
2023/12/28 07:33:17;;;;;;;0.50;0.50;;;7.30;99.90;;;;;;6286705;22;20194;-82
2023/12/28 07:35:44;;;;;;;1.73;1.63;;;7.50;99.90;;;;;;6286719;22;20175;-82
2023/12/28 07:38:11;;;;;;;0.93;0.93;;;7.60;99.90;;;;;;6286378;22;20183;-81
2023/12/28 07:40:38;;;;;;;0.50;0.50;;;7.60;99.90;;;;;;6285868;22;20182;-82
2023/12/28 07:43:05;;;;;;;0.60;0.60;;;7.50;99.90;;;;;;6287041;22;20202;-81
2023/12/28 07:45:32;;;;;;;0.50;0.50;;;7.60;99.90;;;;;;6260047;22;20175;-82
2023/12/28 07:47:59;;;;;;;0.90;0.90;;;8.00;99.90;;;;;;6258756;22;20171;-83
2023/12/28 07:50:27;;;;;;;0.50;0.50;;;7.90;99.90;;;;;;6285928;22;20179;-82
2023/12/28 07:52:54;;;;;;;0.50;0.50;;;7.90;99.90;;;;;;6286658;22;20178;-81
2023/12/28 07:55:21;;;;;;;0.60;0.60;;;7.80;99.90;;;;;;6286201;22;20216;-81
2023/12/28 07:57:48;;;;;;;1.27;1.27;;;8.00;99.90;;;;;;6287308;22;20170;-83
2023/12/28 08:00:15;;;;;;;0.60;0.60;;;8.00;99.90;;;;;;6259680;22;20177;-81
2023/12/28 08:02:43;;;;;;;0.60;0.60;;;8.10;99.90;;;;;;6287179;22;20170;-82
2023/12/28 08:05:10;;;;;;;0.50;0.50;;;8.20;99.90;;;;;;6286859;22;20359;-82
2023/12/28 08:07:37;;;;;;;0.70;0.70;;;8.30;99.90;;;;;;6258905;22;20178;-81
2023/12/28 08:10:05;;;;;;;0.60;0.60;;;8.20;99.90;;;;;;6285639;22;20337;-82
2023/12/28 08:12:32;;;;;;;0.50;0.50;;;8.40;99.90;;;;;;6285710;22;20194;-83
2023/12/28 08:14:59;;;;;;;0.60;0.60;;;8.20;99.90;;;;;;6286243;22;20175;-83
2023/12/28 08:17:26;;;;;;;0.60;0.60;;;8.30;99.90;;;;;;6259049;22;20182;-82
2023/12/28 08:19:55;;;;;;;0.85;0.85;;;8.20;99.90;;;;;;6285648;22;20188;-82
2023/12/28 08:22:22;;;;;;;0.60;0.60;;;8.20;99.90;;;;;;6285229;22;20174;-82
2023/12/28 08:24:49;;;;;;;0.60;0.60;;;8.40;99.90;;;;;;6285231;22;20214;-82
2023/12/28 08:27:17;;;;;;;0.50;0.50;;;8.60;99.90;;;;;;6285684;22;20171;-82
2023/12/28 08:29:44;;;;;;;0.65;0.65;;;8.60;99.90;;;;;;6286028;22;20199;-81
2023/12/28 08:32:10;;;;;;;0.50;0.50;;;8.60;99.90;;;;;;6295833;22;20201;-81
2023/12/28 08:34:38;;;;;;;0.60;0.60;;;8.80;99.90;;;;;;6298194;22;20170;-82
2023/12/28 08:37:06;;;;;;;0.77;0.77;;;8.90;99.90;;;;;;6286530;22;20391;-81
2023/12/28 08:39:33;;;;;;;0.70;0.70;;;9.10;99.90;;;;;;6270049;22;20151;-80
2023/12/28 08:42:01;;;;;;;0.60;0.60;;;9.20;99.90;;;;;;6303132;22;20183;-80
2023/12/28 08:44:28;;;;;;;0.80;0.80;;;9.20;99.90;;;;;;6297062;22;20198;-81
2023/12/28 08:46:54;;;;;;;0.70;0.70;;;9.50;99.90;;;;;;6297107;22;20170;-79
2023/12/28 08:49:22;;;;;;;1.65;1.55;;;9.40;99.90;;;;;;6268752;22;20182;-82
2023/12/28 08:51:50;;;;;;;0.60;0.60;;;9.40;99.90;;;;;;6298881;22;20171;-80
2023/12/28 08:54:17;;;;;;;0.60;0.60;;;9.30;99.90;;;;;;6297009;22;20219;-81
2023/12/28 08:56:45;;;;;;;1.33;1.30;;;9.20;99.90;;;;;;6267022;22;20178;-81
2023/12/28 08:59:16;;;;;;;0.70;0.70;;;9.30;99.90;;;;;;6295588;22;20214;-81
2023/12/28 09:01:43;;;;;;;0.73;0.73;;;9.30;99.90;;;;;;6302239;22;20185;-80
2023/12/28 09:04:10;;;;;;;1.70;1.60;;;9.10;99.90;;;;;;6292929;22;20248;-82
2023/12/28 09:06:37;;;;;;;0.60;0.60;;;9.20;99.90;;;;;;6286538;22;20563;-80
2023/12/28 09:09:04;;;;;;;0.50;0.50;;;9.10;99.90;;;;;;6259098;22;20205;-81
2023/12/28 09:11:31;;;;;;;0.60;0.60;;;9.10;99.90;;;;;;6286250;22;20171;-81
2023/12/28 09:13:59;;;;;;;0.50;0.50;;;9.00;99.90;;;;;;6285317;22;20182;-80
2023/12/28 09:16:28;;;;;;;0.50;0.50;;;9.10;99.90;;;;;;6284420;22;20181;-82
2023/12/28 09:18:55;;;;;;;0.75;0.75;;;9.10;99.90;;;;;;6284999;22;20235;-81
2023/12/28 09:21:22;;;;;;;0.52;0.52;;;9.10;99.90;;;;;;6284855;22;20179;-82
2023/12/28 09:23:49;;;;;;;0.60;0.60;;;9.10;99.90;;;;;;6285040;22;20314;-82
2023/12/28 09:26:17;;;;;;;0.88;0.88;;;9.10;99.90;;;;;;6285299;22;20171;-80
2023/12/28 09:28:44;;;;;;;1.13;1.13;;;9.00;99.90;;;;;;6284898;22;20499;-81
2023/12/28 09:31:11;;;;;;;0.50;0.50;;;9.10;99.90;;;;;;6285330;22;20407;-81
2023/12/28 09:33:38;;;;;;;0.50;0.50;;;9.00;99.90;;;;;;6258603;22;20209;-81
2023/12/28 09:36:06;;;;;;;0.60;0.60;;;9.10;99.90;;;;;;6285164;22;20186;-83
2023/12/28 09:38:35;;;;;;;0.90;0.90;;;9.10;99.90;;;;;;6286640;22;20182;-83
2023/12/28 09:41:14;;;;;;;2.10;2.00;;;9.00;99.90;;;;;;6290799;22;20179;-81
2023/12/28 09:43:58;;;;;;;0.50;0.50;;;9.00;99.90;;;;;;6285863;22;20266;-81
2023/12/28 09:46:26;;;;;;;0.90;0.90;;;9.00;99.90;;;;;;6285209;22;20159;-81
2023/12/28 09:48:56;;;;;;;0.60;0.60;;;9.00;99.90;;;;;;6286682;22;20394;-80
2023/12/28 09:51:27;;;;;;;0.60;0.60;;;9.00;99.90;;;;;;6295339;22;20159;-81
2023/12/28 09:53:55;;;;;;;1.75;1.50;;;8.90;99.90;;;;;;6303880;22;20155;-81
2023/12/28 09:56:24;;;;;;;0.80;0.80;;;9.00;99.90;;;;;;6278935;22;20158;-80
2023/12/28 09:58:56;;;;;;;0.50;0.50;;;9.00;99.90;;;;;;6297864;22;20202;-82
2023/12/28 10:01:24;;;;;;;0.60;0.60;;;9.00;99.90;;;;;;6286094;22;20209;-82
2023/12/28 10:03:52;;;;;;;0.50;0.50;;;9.10;99.90;;;;;;6286179;22;20201;-82
2023/12/28 10:06:21;;;;;;;0.50;0.50;;;9.10;99.90;;;;;;6286279;22;20170;-82
2023/12/28 10:08:49;;;;;;;0.50;0.50;;;9.10;99.90;;;;;;6286042;22;20210;-82
2023/12/28 10:11:18;;;;;;;0.60;0.60;;;9.10;99.90;;;;;;6285174;22;20223;-81
2023/12/28 10:13:45;;;;;;;0.50;0.50;;;9.10;99.90;;;;;;6285415;22;20182;-81
2023/12/28 10:16:13;;;;;;;0.50;0.50;;;9.10;99.90;;;;;;6284939;22;20181;-82
2023/12/28 10:18:43;;;;;;;1.70;1.60;;;9.10;99.90;;;;;;6285751;22;20233;-82
2023/12/28 10:21:11;;;;;;;0.50;0.50;;;9.20;99.90;;;;;;6285605;22;20181;-82
2023/12/28 10:23:39;;;;;;;0.50;0.50;;;9.10;99.90;;;;;;6285052;22;20213;-82
2023/12/28 10:26:06;;;;;;;0.85;0.85;;;9.10;99.90;;;;;;6287891;22;20199;-83
2023/12/28 10:28:35;;;;;;;0.47;0.47;;;9.00;99.90;;;;;;6259600;22;20171;-82
2023/12/28 10:31:02;;;;;;;1.40;1.30;;;9.10;99.90;;;;;;6287621;22;20177;-83
2023/12/28 10:33:36;;;;;;;1.15;1.15;;;9.20;99.90;;;;;;6288395;22;20480;-82
2023/12/28 10:36:08;;;;;;;0.60;0.60;;;9.10;99.90;;;;;;6259603;22;20237;-83
2023/12/28 10:38:38;;;;;;;0.70;0.70;;;9.10;99.90;;;;;;6286847;22;20174;-83
2023/12/28 10:41:09;;;;;;;0.50;0.50;;;9.10;99.90;;;;;;6287087;22;20171;-82
2023/12/28 10:43:47;;;;;;;1.17;1.08;;;9.00;99.90;;;;;;6287257;22;20171;-81
2023/12/28 10:46:39;;;;;;;7.10;2.15;;;9.00;99.90;;;;;;6289414;22;20167;-81
2023/12/28 10:49:12;;;;;;;0.50;0.50;;;9.00;99.90;;;;;;6290017;22;20159;-80
2023/12/28 10:51:45;;;;;;;0.60;0.60;;;9.10;99.90;;;;;;6289673;22;20186;-83
2023/12/28 10:54:25;;;;;;;0.60;0.60;;;9.00;99.90;;;;;;6289016;22;20163;-82
2023/12/28 10:57:03;;;;;;;1.88;1.77;;;9.00;99.90;;;;;;6287428;22;20167;-80
2023/12/28 10:59:43;;;;;;;0.60;0.60;;;9.00;99.90;;;;;;6286542;22;20167;-82
2023/12/28 11:02:14;;;;;;;0.60;0.60;;;9.00;99.90;;;;;;6286627;22;20479;-83
2023/12/28 11:04:44;;;;;;;1.05;1.05;;;9.00;99.90;;;;;;6286674;22;20236;-82
2023/12/28 11:07:14;;;;;;;0.60;0.60;;;9.10;99.90;;;;;;6286837;22;20229;-82
2023/12/28 11:09:42;;;;;;;0.50;0.50;;;9.10;99.90;;;;;;6286297;22;20171;-82
2023/12/28 11:12:12;;;;;;;0.50;0.50;;;9.10;99.90;;;;;;6260284;22;20191;-83
2023/12/28 11:14:41;;;;;;;0.50;0.50;;;9.10;99.90;;;;;;6287199;22;20537;-83
2023/12/28 11:17:09;;;;;;;1.05;1.05;;;9.20;99.90;;;;;;6286506;22;20175;-81
2023/12/28 11:19:38;;;;;;;0.50;0.50;;;9.20;99.90;;;;;;6286385;22;20175;-82
2023/12/28 11:22:06;;;;;;;1.35;1.25;;;9.20;99.90;;;;;;6289442;22;20198;-82
2023/12/28 11:24:34;;;;;;;0.90;0.90;;;9.20;99.90;;;;;;6286133;22;20379;-81
2023/12/28 11:27:01;;;;;;;0.50;0.50;;;9.20;99.90;;;;;;6286384;22;20381;-82
2023/12/28 11:29:31;;;;;;;1.35;1.35;;;9.20;99.90;;;;;;6286577;22;20179;-82
2023/12/28 11:31:59;;;;;;;0.90;0.90;;;9.30;99.90;;;;;;6286857;22;20198;-82
2023/12/28 11:34:28;;;;;;;1.02;1.02;;;9.40;99.90;;;;;;6285401;22;20452;-81
2023/12/28 11:36:57;;;;;;;0.50;0.50;;;9.40;99.90;;;;;;6285315;22;20195;-83
2023/12/28 11:39:36;;;;;;;0.50;0.50;;;9.40;99.90;;;;;;6260678;22;20198;-82
2023/12/28 11:42:05;;;;;;;1.35;1.27;;;9.40;99.90;;;;;;6289587;22;20219;-83
2023/12/28 11:44:39;;;;;;;0.60;0.60;;;9.40;99.90;;;;;;6259743;22;20195;-82
2023/12/28 11:47:22;;;;;;;2.25;1.25;;;9.40;99.90;;;;;;6286455;22;20159;-83
2023/12/28 11:49:51;;;;;;;0.50;0.50;;;9.40;99.90;;;;;;6259630;22;20195;-81
2023/12/28 11:52:28;;;;;;;0.40;0.40;;;9.40;99.90;;;;;;6286020;22;20202;-82
2023/12/28 11:54:57;;;;;;;0.60;0.60;;;9.40;99.90;;;;;;6286477;22;20163;-81
2023/12/28 11:57:24;;;;;;;0.60;0.60;;;9.40;99.90;;;;;;6285916;22;20178;-81
2023/12/28 12:00:00;;;;;;;0.50;0.50;;;9.40;99.90;;;;;;6287054;22;20175;-81
2023/12/28 12:02:27;;;;;;;2.15;2.03;;;9.40;99.90;;;;;;6259594;22;20237;-81
2023/12/28 12:04:57;;;;;;;0.50;0.50;;;9.40;99.90;;;;;;6298464;22;20190;-81
2023/12/28 12:07:25;;;;;;;3.85;1.60;;;9.40;99.90;;;;;;6304628;22;20715;-83
2023/12/28 12:09:59;;;;;;;0.90;0.90;;;9.40;99.90;;;;;;6294532;22;20179;-81
2023/12/28 12:12:27;;;;;;;0.50;0.50;;;9.40;99.90;;;;;;6287739;22;20182;-81
2023/12/28 12:14:56;;;;;;;0.60;0.60;;;9.30;99.90;;;;;;6286845;22;20182;-81
2023/12/28 12:17:24;;;;;;;0.60;0.60;;;9.30;99.90;;;;;;6285991;22;20175;-82
2023/12/28 12:19:55;;;;;;;0.60;0.60;;;9.30;99.90;;;;;;6286815;22;20175;-83
2023/12/28 12:22:23;;;;;;;0.60;0.60;;;9.30;99.90;;;;;;6286577;22;20229;-82
2023/12/28 12:24:57;;;;;;;2.20;2.05;;;9.20;99.90;;;;;;6260610;22;20214;-81
2023/12/28 12:27:24;;;;;;;0.57;0.57;;;9.20;99.90;;;;;;6285452;22;20174;-82
2023/12/28 12:29:51;;;;;;;0.60;0.60;;;9.20;99.90;;;;;;6258699;22;20228;-81
2023/12/28 12:32:18;;;;;;;0.52;0.52;;;9.20;99.90;;;;;;6258875;22;20221;-82
2023/12/28 12:34:45;;;;;;;0.60;0.60;;;9.20;99.90;;;;;;6285149;22;20475;-83
2023/12/28 12:37:13;;;;;;;0.50;0.50;;;9.20;99.90;;;;;;6258338;22;20175;-80
2023/12/28 12:39:40;;;;;;;0.68;0.68;;;9.10;99.90;;;;;;6284992;22;20251;-80
2023/12/28 12:42:12;;;;;;;1.02;1.02;;;9.10;99.90;;;;;;6284866;22;20178;-81
2023/12/28 12:44:39;;;;;;;0.70;0.70;;;9.10;99.90;;;;;;6285396;22;20190;-82
2023/12/28 12:47:07;;;;;;;0.50;0.50;;;9.10;99.90;;;;;;6258276;22;20201;-81
2023/12/28 12:49:34;;;;;;;3.15;1.45;;;9.00;99.90;;;;;;6285636;22;20170;-83
2023/12/28 12:52:01;;;;;;;0.90;0.90;;;8.90;99.90;;;;;;6285198;22;20475;-83
2023/12/28 12:54:31;;;;;;;0.93;0.93;;;8.90;99.90;;;;;;6284509;22;20179;-81
2023/12/28 12:56:59;;;;;;;0.50;0.50;;;8.90;99.90;;;;;;6285821;22;20175;-81
2023/12/28 12:59:26;;;;;;;0.43;0.43;;;8.80;99.90;;;;;;6263599;22;20386;-83
2023/12/28 13:01:54;;;;;;;0.50;0.50;;;8.80;99.90;;;;;;6293448;22;20194;-83
2023/12/28 13:04:21;;;;;;;0.60;0.60;;;8.80;99.90;;;;;;6286882;22;20191;-82